sensor_id;sensor_type;location;lat;lon;timestamp;pressure;altitude;pressure_sealevel;temperature;humidity
21879;BME280;27908;42.708;23.278;2023-04-07T00:02:22;62743.06;;;2.40;70.07
21879;BME280;27908;42.708;23.278;2023-04-07T00:04:48;62806.31;;;2.35;69.96
21879;BME280;27908;42.708;23.278;2023-04-07T00:07:13;62728.03;;;2.42;69.93
21879;BME280;27908;42.708;23.278;2023-04-07T00:09:39;62788.38;;;2.45;69.79
21879;BME280;27908;42.708;23.278;2023-04-07T00:12:04;62753.19;;;2.45;69.68
21879;BME280;27908;42.708;23.278;2023-04-07T00:14:29;62732.13;;;2.48;69.88
21879;BME280;27908;42.708;23.278;2023-04-07T00:16:55;62718.00;;;2.45;70.36
21879;BME280;27908;42.708;23.278;2023-04-07T00:19:20;62727.56;;;2.44;71.20
21879;BME280;27908;42.708;23.278;2023-04-07T00:21:46;62751.81;;;2.53;69.22
21879;BME280;27908;42.708;23.278;2023-04-07T00:24:11;62725.69;;;2.54;69.46
21879;BME280;27908;42.708;23.278;2023-04-07T00:26:37;62772.00;;;2.58;69.09
21879;BME280;27908;42.708;23.278;2023-04-07T00:29:02;62739.28;;;2.55;69.37
21879;BME280;27908;42.708;23.278;2023-04-07T00:31:27;62725.34;;;2.30;69.29
21879;BME280;27908;42.708;23.278;2023-04-07T00:33:53;62751.81;;;2.53;68.61
21879;BME280;27908;42.708;23.278;2023-04-07T00:36:20;62733.69;;;2.52;68.27
21879;BME280;27908;42.708;23.278;2023-04-07T00:38:45;62740.41;;;2.64;67.34
21879;BME280;27908;42.708;23.278;2023-04-07T00:41:10;62798.25;;;2.66;66.48
21879;BME280;27908;42.708;23.278;2023-04-07T00:43:36;62769.16;;;2.70;69.08
21879;BME280;27908;42.708;23.278;2023-04-07T00:46:01;62870.00;;;2.55;67.36
21879;BME280;27908;42.708;23.278;2023-04-07T00:48:27;62770.63;;;2.69;66.31
21879;BME280;27908;42.708;23.278;2023-04-07T00:50:53;62767.13;;;2.68;65.76
21879;BME280;27908;42.708;23.278;2023-04-07T00:53:19;62780.69;;;2.69;66.25
21879;BME280;27908;42.708;23.278;2023-04-07T00:55:45;62767.13;;;2.68;66.11
21879;BME280;27908;42.708;23.278;2023-04-07T00:58:10;62783.47;;;2.52;66.24
21879;BME280;27908;42.708;23.278;2023-04-07T01:00:48;62796.75;;;2.67;66.39
21879;BME280;27908;42.708;23.278;2023-04-07T01:03:35;62772.53;;;2.61;66.12
21879;BME280;27908;42.708;23.278;2023-04-07T01:06:05;62818.06;;;2.78;65.04
21879;BME280;27908;42.708;23.278;2023-04-07T01:08:48;62812.50;;;2.78;65.50
21879;BME280;27908;42.708;23.278;2023-04-07T01:13:56;62772.88;;;2.85;65.46
21879;BME280;27908;42.708;23.278;2023-04-07T01:16:26;62776.94;;;2.87;64.44
21879;BME280;27908;42.708;23.278;2023-04-07T01:18:55;62788.44;;;2.83;65.03
21879;BME280;27908;42.708;23.278;2023-04-07T01:21:24;62769.34;;;2.82;65.10
21879;BME280;27908;42.708;23.278;2023-04-07T01:26:39;62786.03;;;2.91;67.03
21879;BME280;27908;42.708;23.278;2023-04-07T01:31:38;62759.47;;;2.97;64.44
21879;BME280;27908;42.708;23.278;2023-04-07T01:34:05;62808.25;;;2.95;64.03
21879;BME280;27908;42.708;23.278;2023-04-07T01:36:33;62810.47;;;3.10;63.95
21879;BME280;27908;42.708;23.278;2023-04-07T01:38:59;62829.47;;;3.01;63.43
21879;BME280;27908;42.708;23.278;2023-04-07T01:41:26;62795.47;;;3.17;64.24
21879;BME280;27908;42.708;23.278;2023-04-07T01:43:52;62844.94;;;3.28;64.24
21879;BME280;27908;42.708;23.278;2023-04-07T01:46:18;62831.78;;;3.23;64.20
21879;BME280;27908;42.708;23.278;2023-04-07T01:48:44;62838.78;;;3.20;63.82
21879;BME280;27908;42.708;23.278;2023-04-07T01:51:12;62831.78;;;3.23;62.89
21879;BME280;27908;42.708;23.278;2023-04-07T01:53:41;62850.97;;;3.27;63.93
21879;BME280;27908;42.708;23.278;2023-04-07T01:56:07;62903.69;;;3.17;63.68
21879;BME280;27908;42.708;23.278;2023-04-07T01:58:33;62816.75;;;3.28;62.86
21879;BME280;27908;42.708;23.278;2023-04-07T02:00:58;62849.00;;;3.30;62.95
21879;BME280;27908;42.708;23.278;2023-04-07T02:03:39;62881.03;;;3.17;63.16
21879;BME280;27908;42.708;23.278;2023-04-07T02:06:08;62823.13;;;3.15;67.03
21879;BME280;27908;42.708;23.278;2023-04-07T02:08:41;62799.63;;;2.92;70.38
21879;BME280;27908;42.708;23.278;2023-04-07T02:11:09;62799.50;;;2.82;70.46
21879;BME280;27908;42.708;23.278;2023-04-07T02:13:36;62749.78;;;2.87;66.34
21879;BME280;27908;42.708;23.278;2023-04-07T02:16:03;62830.91;;;2.98;66.08
21879;BME280;27908;42.708;23.278;2023-04-07T02:18:30;62816.47;;;3.08;66.08
21879;BME280;27908;42.708;23.278;2023-04-07T02:20:57;62803.03;;;3.17;64.29
21879;BME280;27908;42.708;23.278;2023-04-07T02:23:24;62785.78;;;3.08;62.33
21879;BME280;27908;42.708;23.278;2023-04-07T02:25:49;62867.09;;;3.28;62.85
21879;BME280;27908;42.708;23.278;2023-04-07T02:28:15;62828.97;;;3.37;61.94
21879;BME280;27908;42.708;23.278;2023-04-07T02:30:40;62811.91;;;3.43;62.50
21879;BME280;27908;42.708;23.278;2023-04-07T02:33:06;62834.78;;;3.21;73.01
21879;BME280;27908;42.708;23.278;2023-04-07T02:35:31;62832.94;;;2.97;74.52
21879;BME280;27908;42.708;23.278;2023-04-07T02:37:56;62878.31;;;3.05;76.44
21879;BME280;27908;42.708;23.278;2023-04-07T02:40:22;62757.28;;;2.85;76.90
21879;BME280;27908;42.708;23.278;2023-04-07T02:42:47;62801.88;;;2.72;78.87
21879;BME280;27908;42.708;23.278;2023-04-07T02:45:13;62755.66;;;2.42;80.80
21879;BME280;27908;42.708;23.278;2023-04-07T02:47:38;62740.56;;;2.40;81.19
21879;BME280;27908;42.708;23.278;2023-04-07T02:50:04;62730.50;;;2.40;84.76
21879;BME280;27908;42.708;23.278;2023-04-07T02:52:31;62759.94;;;2.24;82.26
21879;BME280;27908;42.708;23.278;2023-04-07T02:54:57;62738.06;;;2.40;83.22
21879;BME280;27908;42.708;23.278;2023-04-07T02:57:22;62737.59;;;2.44;80.57
21879;BME280;27908;42.708;23.278;2023-04-07T02:59:47;62730.19;;;2.51;80.83
21879;BME280;27908;42.708;23.278;2023-04-07T03:02:13;62778.53;;;2.59;80.64
21879;BME280;27908;42.708;23.278;2023-04-07T03:04:38;62779.00;;;2.57;81.91
21879;BME280;27908;42.708;23.278;2023-04-07T03:07:04;62700.59;;;2.59;78.33
21879;BME280;27908;42.708;23.278;2023-04-07T03:09:29;62808.75;;;2.62;77.88
21879;BME280;27908;42.708;23.278;2023-04-07T03:11:55;62801.84;;;2.70;77.77
21879;BME280;27908;42.708;23.278;2023-04-07T03:14:21;62798.16;;;2.59;68.72
21879;BME280;27908;42.708;23.278;2023-04-07T03:16:46;62801.09;;;2.88;67.38
21879;BME280;27908;42.708;23.278;2023-04-07T03:19:12;62791.28;;;3.06;63.96
21879;BME280;27908;42.708;23.278;2023-04-07T03:21:37;62797.91;;;3.12;64.23
21879;BME280;27908;42.708;23.278;2023-04-07T03:24:03;62837.78;;;3.19;65.10
21879;BME280;27908;42.708;23.278;2023-04-07T03:26:29;62817.66;;;3.19;63.28
21879;BME280;27908;42.708;23.278;2023-04-07T03:28:55;62818.09;;;3.15;63.77
21879;BME280;27908;42.708;23.278;2023-04-07T03:31:20;62830.75;;;3.22;63.38
21879;BME280;27908;42.708;23.278;2023-04-07T03:33:47;62813.66;;;3.22;63.19
21879;BME280;27908;42.708;23.278;2023-04-07T03:36:12;62840.91;;;3.27;62.49
21879;BME280;27908;42.708;23.278;2023-04-07T03:38:38;62848.28;;;3.15;63.20
21879;BME280;27908;42.708;23.278;2023-04-07T03:41:03;62845.47;;;3.29;62.97
21879;BME280;27908;42.708;23.278;2023-04-07T03:43:29;62842.50;;;3.33;62.33
21879;BME280;27908;42.708;23.278;2023-04-07T03:45:54;62883.41;;;3.41;63.14
21879;BME280;27908;42.708;23.278;2023-04-07T03:48:20;62852.63;;;3.38;63.08
21879;BME280;27908;42.708;23.278;2023-04-07T03:50:45;62858.22;;;3.41;62.72
21879;BME280;27908;42.708;23.278;2023-04-07T03:53:11;62862.25;;;3.43;61.84
21879;BME280;27908;42.708;23.278;2023-04-07T03:55:39;62859.84;;;3.50;63.06
21879;BME280;27908;42.708;23.278;2023-04-07T03:58:05;62850.28;;;3.51;62.73
21879;BME280;27908;42.708;23.278;2023-04-07T04:00:31;62859.75;;;3.43;62.91
21879;BME280;27908;42.708;23.278;2023-04-07T04:03:00;62883.59;;;3.53;63.29
21879;BME280;27908;42.708;23.278;2023-04-07T04:05:25;62908.72;;;3.51;63.48
21879;BME280;27908;42.708;23.278;2023-04-07T04:07:51;62861.38;;;3.49;62.00
21879;BME280;27908;42.708;23.278;2023-04-07T04:10:17;62882.03;;;3.52;62.58
21879;BME280;27908;42.708;23.278;2023-04-07T04:12:43;62842.75;;;3.51;62.53
21879;BME280;27908;42.708;23.278;2023-04-07T04:15:09;62863.28;;;3.44;62.02
21879;BME280;27908;42.708;23.278;2023-04-07T04:17:34;62839.34;;;3.59;63.81
21879;BME280;27908;42.708;23.278;2023-04-07T04:20:00;62841.19;;;3.47;63.13
21879;BME280;27908;42.708;23.278;2023-04-07T04:22:25;62890.34;;;3.70;64.51
21879;BME280;27908;42.708;23.278;2023-04-07T04:24:51;62849.97;;;3.28;72.88
21879;BME280;27908;42.708;23.278;2023-04-07T04:27:16;62834.81;;;3.23;76.14
21879;BME280;27908;42.708;23.278;2023-04-07T04:29:42;62822.47;;;3.04;76.66
21879;BME280;27908;42.708;23.278;2023-04-07T04:32:07;62794.31;;;3.06;77.19
21879;BME280;27908;42.708;23.278;2023-04-07T04:34:32;62754.00;;;2.65;79.74
21879;BME280;27908;42.708;23.278;2023-04-07T04:36:58;62788.97;;;2.84;81.42
21879;BME280;27908;42.708;23.278;2023-04-07T04:39:23;62778.63;;;2.64;83.65
21879;BME280;27908;42.708;23.278;2023-04-07T04:41:49;62749.31;;;2.55;83.75
21879;BME280;27908;42.708;23.278;2023-04-07T04:44:15;62747.94;;;2.64;84.57
21879;BME280;27908;42.708;23.278;2023-04-07T04:46:40;62733.19;;;2.52;85.40
21879;BME280;27908;42.708;23.278;2023-04-07T04:49:05;62764.00;;;2.62;86.06
21879;BME280;27908;42.708;23.278;2023-04-07T04:51:31;62748.72;;;2.47;85.45
21879;BME280;27908;42.708;23.278;2023-04-07T04:53:56;62755.84;;;2.54;85.02
21879;BME280;27908;42.708;23.278;2023-04-07T04:56:22;62754.91;;;2.58;85.86
21879;BME280;27908;42.708;23.278;2023-04-07T04:58:47;62715.63;;;2.54;84.84
21879;BME280;27908;42.708;23.278;2023-04-07T05:01:12;62814.91;;;2.70;85.72
21879;BME280;27908;42.708;23.278;2023-04-07T05:03:38;62734.00;;;2.75;85.65
21879;BME280;27908;42.708;23.278;2023-04-07T05:06:04;62751.69;;;2.80;85.24
21879;BME280;27908;42.708;23.278;2023-04-07T05:08:29;62783.75;;;2.72;87.47
21879;BME280;27908;42.708;23.278;2023-04-07T05:10:55;62777.72;;;2.71;87.41
21879;BME280;27908;42.708;23.278;2023-04-07T05:13:21;62768.72;;;2.74;88.10
21879;BME280;27908;42.708;23.278;2023-04-07T05:15:46;62807.66;;;2.90;88.05
21879;BME280;27908;42.708;23.278;2023-04-07T05:18:12;62811.34;;;3.01;87.53
21879;BME280;27908;42.708;23.278;2023-04-07T05:20:37;62841.03;;;3.00;85.88
21879;BME280;27908;42.708;23.278;2023-04-07T05:23:03;62826.13;;;3.13;87.50
21879;BME280;27908;42.708;23.278;2023-04-07T05:25:29;62831.19;;;3.15;86.11
21879;BME280;27908;42.708;23.278;2023-04-07T05:27:54;62825.56;;;3.10;87.64
21879;BME280;27908;42.708;23.278;2023-04-07T05:30:20;62783.66;;;2.98;87.39
21879;BME280;27908;42.708;23.278;2023-04-07T05:32:45;62786.28;;;3.08;87.08
21879;BME280;27908;42.708;23.278;2023-04-07T05:35:11;62862.81;;;3.12;85.10
21879;BME280;27908;42.708;23.278;2023-04-07T05:37:36;62793.34;;;3.10;83.63
21879;BME280;27908;42.708;23.278;2023-04-07T05:40:02;62847.84;;;3.19;84.09
21879;BME280;27908;42.708;23.278;2023-04-07T05:42:27;62850.09;;;3.36;82.95
21879;BME280;27908;42.708;23.278;2023-04-07T05:44:53;62881.56;;;3.54;81.90
21879;BME280;27908;42.708;23.278;2023-04-07T05:47:18;62903.44;;;3.68;81.04
21879;BME280;27908;42.708;23.278;2023-04-07T05:49:44;62851.00;;;3.63;81.20
21879;BME280;27908;42.708;23.278;2023-04-07T05:52:12;62900.78;;;3.60;80.28
21879;BME280;27908;42.708;23.278;2023-04-07T05:54:38;62871.94;;;3.50;81.38
21879;BME280;27908;42.708;23.278;2023-04-07T05:57:07;62898.69;;;3.53;80.11
21879;BME280;27908;42.708;23.278;2023-04-07T05:59:33;62888.31;;;3.68;80.49
21879;BME280;27908;42.708;23.278;2023-04-07T06:01:59;62889.06;;;3.86;79.56
21879;BME280;27908;42.708;23.278;2023-04-07T06:04:24;62943.78;;;3.73;79.02
21879;BME280;27908;42.708;23.278;2023-04-07T06:06:49;62956.88;;;4.07;81.61
21879;BME280;27908;42.708;23.278;2023-04-07T06:09:16;62943.91;;;4.17;77.99
21879;BME280;27908;42.708;23.278;2023-04-07T06:11:42;62989.34;;;4.22;75.14
21879;BME280;27908;42.708;23.278;2023-04-07T06:14:08;62920.66;;;4.11;76.72
21879;BME280;27908;42.708;23.278;2023-04-07T06:16:33;62928.53;;;4.36;79.46
21879;BME280;27908;42.708;23.278;2023-04-07T06:18:58;62986.91;;;4.60;77.17
21879;BME280;27908;42.708;23.278;2023-04-07T06:21:24;63029.50;;;4.77;70.92
21879;BME280;27908;42.708;23.278;2023-04-07T06:23:51;63029.25;;;4.96;69.44
21879;BME280;27908;42.708;23.278;2023-04-07T06:26:16;63026.81;;;5.01;71.79
21879;BME280;27908;42.708;23.278;2023-04-07T06:28:42;63027.69;;;4.93;71.38
21879;BME280;27908;42.708;23.278;2023-04-07T06:31:07;63046.66;;;5.13;73.25
21879;BME280;27908;42.708;23.278;2023-04-07T06:33:33;63076.84;;;5.45;69.36
21879;BME280;27908;42.708;23.278;2023-04-07T06:35:58;63071.75;;;5.79;60.30
21879;BME280;27908;42.708;23.278;2023-04-07T06:38:24;63161.44;;;5.95;57.45
21879;BME280;27908;42.708;23.278;2023-04-07T06:40:50;63179.56;;;6.27;55.98
21879;BME280;27908;42.708;23.278;2023-04-07T06:43:15;63257.72;;;6.46;53.94
21879;BME280;27908;42.708;23.278;2023-04-07T06:45:41;63240.88;;;6.73;55.24
21879;BME280;27908;42.708;23.278;2023-04-07T06:48:06;63238.25;;;6.66;52.91
21879;BME280;27908;42.708;23.278;2023-04-07T06:50:31;63250.59;;;6.83;53.45
21879;BME280;27908;42.708;23.278;2023-04-07T06:52:57;63268.88;;;6.86;52.98
21879;BME280;27908;42.708;23.278;2023-04-07T06:55:22;63201.81;;;6.68;52.63
21879;BME280;27908;42.708;23.278;2023-04-07T06:57:48;63191.47;;;6.50;53.28
21879;BME280;27908;42.708;23.278;2023-04-07T07:00:16;63194.03;;;6.53;52.26
21879;BME280;27908;42.708;23.278;2023-04-07T07:02:43;63230.69;;;6.69;52.99
21879;BME280;27908;42.708;23.278;2023-04-07T07:05:08;63192.63;;;6.61;53.72
21879;BME280;27908;42.708;23.278;2023-04-07T07:07:35;63236.31;;;6.74;53.03
21879;BME280;27908;42.708;23.278;2023-04-07T07:10:01;63252.16;;;6.84;51.35
21879;BME280;27908;42.708;23.278;2023-04-07T07:12:27;63234.53;;;6.92;53.04
21879;BME280;27908;42.708;23.278;2023-04-07T07:14:52;63272.44;;;6.87;51.88
21879;BME280;27908;42.708;23.278;2023-04-07T07:17:17;63268.34;;;6.85;51.44
21879;BME280;27908;42.708;23.278;2023-04-07T07:19:43;63271.56;;;6.98;51.12
21879;BME280;27908;42.708;23.278;2023-04-07T07:22:08;63272.13;;;7.04;52.37
21879;BME280;27908;42.708;23.278;2023-04-07T07:24:34;63213.09;;;6.78;51.13
21879;BME280;27908;42.708;23.278;2023-04-07T07:26:59;63276.56;;;6.93;51.61
21879;BME280;27908;42.708;23.278;2023-04-07T07:29:26;63244.16;;;6.94;50.86
21879;BME280;27908;42.708;23.278;2023-04-07T07:31:52;63274.63;;;6.99;50.01
21879;BME280;27908;42.708;23.278;2023-04-07T07:34:17;63260.38;;;6.95;50.77
21879;BME280;27908;42.708;23.278;2023-04-07T07:36:42;63260.06;;;7.09;50.34
21879;BME280;27908;42.708;23.278;2023-04-07T07:39:08;63292.59;;;7.18;50.77
21879;BME280;27908;42.708;23.278;2023-04-07T07:41:33;63309.94;;;7.28;49.92
21879;BME280;27908;42.708;23.278;2023-04-07T07:43:59;63321.91;;;7.54;49.17
21879;BME280;27908;42.708;23.278;2023-04-07T07:46:24;63357.50;;;7.61;49.41
21879;BME280;27908;42.708;23.278;2023-04-07T07:48:51;63307.97;;;7.33;50.23
21879;BME280;27908;42.708;23.278;2023-04-07T07:51:17;63342.91;;;7.72;49.76
21879;BME280;27908;42.708;23.278;2023-04-07T07:53:45;63376.94;;;7.75;48.33
21879;BME280;27908;42.708;23.278;2023-04-07T07:56:12;63302.72;;;7.60;47.59
21879;BME280;27908;42.708;23.278;2023-04-07T07:58:37;63353.84;;;7.53;48.41
21879;BME280;27908;42.708;23.278;2023-04-07T08:01:03;63319.84;;;7.49;48.76
21879;BME280;27908;42.708;23.278;2023-04-07T08:03:28;63457.41;;;7.62;49.50
21879;BME280;27908;42.708;23.278;2023-04-07T08:05:54;63297.50;;;7.47;50.58
21879;BME280;27908;42.708;23.278;2023-04-07T08:08:19;63350.84;;;7.57;50.24
21879;BME280;27908;42.708;23.278;2023-04-07T08:10:45;63315.84;;;7.55;48.97
21879;BME280;27908;42.708;23.278;2023-04-07T08:13:10;63353.16;;;7.79;51.62
21879;BME280;27908;42.708;23.278;2023-04-07T08:15:36;63341.66;;;7.95;48.49
21879;BME280;27908;42.708;23.278;2023-04-07T08:18:01;63379.16;;;7.89;49.72
21879;BME280;27908;42.708;23.278;2023-04-07T08:20:30;63361.19;;;7.72;49.98
21879;BME280;27908;42.708;23.278;2023-04-07T08:22:56;63419.66;;;7.84;49.50
21879;BME280;27908;42.708;23.278;2023-04-07T08:25:21;63407.31;;;8.09;49.70
21879;BME280;27908;42.708;23.278;2023-04-07T08:27:47;63350.78;;;7.94;49.54
21879;BME280;27908;42.708;23.278;2023-04-07T08:30:12;63385.69;;;7.86;49.14
21879;BME280;27908;42.708;23.278;2023-04-07T08:32:42;63348.47;;;7.70;49.22
21879;BME280;27908;42.708;23.278;2023-04-07T08:35:08;63286.41;;;7.51;50.64
21879;BME280;27908;42.708;23.278;2023-04-07T08:37:34;63321.78;;;7.44;48.31
21879;BME280;27908;42.708;23.278;2023-04-07T08:40:00;63321.88;;;7.51;48.95
21879;BME280;27908;42.708;23.278;2023-04-07T08:42:27;63339.31;;;7.68;48.92
21879;BME280;27908;42.708;23.278;2023-04-07T08:45:01;63376.25;;;8.01;48.50
21879;BME280;27908;42.708;23.278;2023-04-07T08:47:27;63363.31;;;7.79;49.38
21879;BME280;27908;42.708;23.278;2023-04-07T08:49:56;63360.28;;;7.81;49.02
21879;BME280;27908;42.708;23.278;2023-04-07T08:52:38;63375.13;;;7.93;48.68
21879;BME280;27908;42.708;23.278;2023-04-07T08:55:04;63414.50;;;8.16;47.84
21879;BME280;27908;42.708;23.278;2023-04-07T08:57:33;63392.78;;;8.27;48.08
21879;BME280;27908;42.708;23.278;2023-04-07T09:00:00;63458.97;;;8.42;48.21
21879;BME280;27908;42.708;23.278;2023-04-07T09:02:31;63482.66;;;8.69;48.37
21879;BME280;27908;42.708;23.278;2023-04-07T09:04:57;63470.81;;;8.55;48.77
21879;BME280;27908;42.708;23.278;2023-04-07T09:07:23;63441.31;;;8.51;47.58
21879;BME280;27908;42.708;23.278;2023-04-07T09:09:49;63414.75;;;8.38;47.19
21879;BME280;27908;42.708;23.278;2023-04-07T09:12:15;63395.34;;;8.27;47.04
21879;BME280;27908;42.708;23.278;2023-04-07T09:14:40;63452.41;;;8.89;48.19
21879;BME280;27908;42.708;23.278;2023-04-07T09:17:06;63627.03;;;9.54;48.16
21879;BME280;27908;42.708;23.278;2023-04-07T09:19:31;63585.03;;;9.28;46.02
21879;BME280;27908;42.708;23.278;2023-04-07T09:21:57;63471.75;;;8.93;47.13
21879;BME280;27908;42.708;23.278;2023-04-07T09:24:28;63526.13;;;8.91;46.61
21879;BME280;27908;42.708;23.278;2023-04-07T09:27:14;63466.88;;;8.64;45.91
21879;BME280;27908;42.708;23.278;2023-04-07T09:29:42;63486.91;;;8.86;46.06
21879;BME280;27908;42.708;23.278;2023-04-07T09:32:08;63488.69;;;8.63;47.93
21879;BME280;27908;42.708;23.278;2023-04-07T09:34:36;63494.63;;;8.93;47.11
21879;BME280;27908;42.708;23.278;2023-04-07T09:37:02;63479.16;;;8.73;46.99
21879;BME280;27908;42.708;23.278;2023-04-07T09:39:29;63423.75;;;8.71;47.84
21879;BME280;27908;42.708;23.278;2023-04-07T09:41:54;63444.59;;;8.72;47.33
21879;BME280;27908;42.708;23.278;2023-04-07T09:44:21;63423.88;;;8.37;48.54
21879;BME280;27908;42.708;23.278;2023-04-07T09:47:07;63418.59;;;8.20;48.35
21879;BME280;27908;42.708;23.278;2023-04-07T09:49:48;63441.44;;;8.61;48.11
21879;BME280;27908;42.708;23.278;2023-04-07T09:52:13;63478.63;;;8.70;48.15
21879;BME280;27908;42.708;23.278;2023-04-07T09:54:40;63446.59;;;8.69;46.90
21879;BME280;27908;42.708;23.278;2023-04-07T09:57:10;63480.88;;;8.89;47.22
21879;BME280;27908;42.708;23.278;2023-04-07T09:59:38;63496.69;;;8.95;47.60
21879;BME280;27908;42.708;23.278;2023-04-07T10:02:04;63491.88;;;8.76;47.14
21879;BME280;27908;42.708;23.278;2023-04-07T10:04:30;63468.09;;;8.82;49.34
21879;BME280;27908;42.708;23.278;2023-04-07T10:06:57;63487.50;;;8.91;48.46
21879;BME280;27908;42.708;23.278;2023-04-07T10:09:25;63474.59;;;8.74;47.72
21879;BME280;27908;42.708;23.278;2023-04-07T10:11:52;63491.50;;;8.85;47.96
21879;BME280;27908;42.708;23.278;2023-04-07T10:14:19;63419.25;;;8.30;48.27
21879;BME280;27908;42.708;23.278;2023-04-07T10:16:48;63438.13;;;8.39;49.15
21879;BME280;27908;42.708;23.278;2023-04-07T10:19:14;63435.09;;;8.41;48.98
21879;BME280;27908;42.708;23.278;2023-04-07T10:21:41;63470.97;;;8.68;47.36
21879;BME280;27908;42.708;23.278;2023-04-07T10:24:30;63538.84;;;8.94;47.39
21879;BME280;27908;42.708;23.278;2023-04-07T10:27:03;63499.00;;;8.75;48.50
21879;BME280;27908;42.708;23.278;2023-04-07T10:29:34;63494.19;;;8.97;48.76
21879;BME280;27908;42.708;23.278;2023-04-07T10:32:02;63469.56;;;8.79;49.19
21879;BME280;27908;42.708;23.278;2023-04-07T10:37:16;63410.88;;;8.10;50.85
21879;BME280;27908;42.708;23.278;2023-04-07T10:39:44;63444.59;;;8.28;51.44
21879;BME280;27908;42.708;23.278;2023-04-07T10:45:09;63393.66;;;8.13;51.85
21879;BME280;27908;42.708;23.278;2023-04-07T10:50:24;63409.09;;;8.30;51.75
21879;BME280;27908;42.708;23.278;2023-04-07T10:53:16;63435.09;;;8.41;51.99
21879;BME280;27908;42.708;23.278;2023-04-07T10:55:45;63434.78;;;8.57;52.19
21879;BME280;27908;42.708;23.278;2023-04-07T10:58:27;63403.66;;;8.45;52.78
21879;BME280;27908;42.708;23.278;2023-04-07T11:03:55;63418.72;;;8.30;52.54
21879;BME280;27908;42.708;23.278;2023-04-07T11:06:21;63444.25;;;8.42;52.23
21879;BME280;27908;42.708;23.278;2023-04-07T11:08:47;63512.00;;;8.58;51.42
21879;BME280;27908;42.708;23.278;2023-04-07T11:11:15;63489.69;;;9.05;52.17
21879;BME280;27908;42.708;23.278;2023-04-07T11:13:45;63585.31;;;9.09;51.23
21879;BME280;27908;42.708;23.278;2023-04-07T11:16:12;63528.06;;;8.84;51.88
21879;BME280;27908;42.708;23.278;2023-04-07T11:18:38;63458.06;;;8.51;51.36
21879;BME280;27908;42.708;23.278;2023-04-07T11:21:06;63463.72;;;8.56;53.42
21879;BME280;27908;42.708;23.278;2023-04-07T11:23:39;63463.94;;;8.76;52.62
21879;BME280;27908;42.708;23.278;2023-04-07T11:26:06;63485.28;;;8.74;51.75
21879;BME280;27908;42.708;23.278;2023-04-07T11:28:32;63425.28;;;8.26;52.64
21879;BME280;27908;42.708;23.278;2023-04-07T11:30:58;63473.91;;;8.58;52.63
21879;BME280;27908;42.708;23.278;2023-04-07T11:33:26;63428.72;;;8.59;53.92
21879;BME280;27908;42.708;23.278;2023-04-07T11:36:00;63481.25;;;8.78;51.37
21879;BME280;27908;42.708;23.278;2023-04-07T11:38:34;63557.47;;;9.19;51.83
21879;BME280;27908;42.708;23.278;2023-04-07T11:41:10;63530.44;;;9.13;52.08
21879;BME280;27908;42.708;23.278;2023-04-07T11:43:36;63515.50;;;8.96;52.07
21879;BME280;27908;42.708;23.278;2023-04-07T11:46:12;63499.59;;;8.83;52.76
21879;BME280;27908;42.708;23.278;2023-04-07T11:48:39;63462.00;;;8.84;52.43
21879;BME280;27908;42.708;23.278;2023-04-07T11:51:06;63561.50;;;9.18;52.83
21879;BME280;27908;42.708;23.278;2023-04-07T11:53:39;63488.59;;;8.97;52.95
21879;BME280;27908;42.708;23.278;2023-04-07T11:56:09;63473.66;;;8.80;53.53
21879;BME280;27908;42.708;23.278;2023-04-07T11:58:46;63516.56;;;8.99;51.43
21879;BME280;27908;42.708;23.278;2023-04-07T12:01:12;63472.66;;;8.82;52.08
21879;BME280;27908;42.708;23.278;2023-04-07T12:04:02;63525.59;;;8.88;51.47
21879;BME280;27908;42.708;23.278;2023-04-07T12:06:32;63508.91;;;8.97;52.43
21879;BME280;27908;42.708;23.278;2023-04-07T12:09:07;63492.41;;;9.22;53.27
21879;BME280;27908;42.708;23.278;2023-04-07T12:11:33;63541.75;;;9.23;52.08
21879;BME280;27908;42.708;23.278;2023-04-07T12:13:59;63546.31;;;9.23;51.49
21879;BME280;27908;42.708;23.278;2023-04-07T12:16:25;63561.50;;;8.77;52.19
21879;BME280;27908;42.708;23.278;2023-04-07T12:18:50;63531.28;;;8.96;53.63
21879;BME280;27908;42.708;23.278;2023-04-07T12:21:19;63470.78;;;8.97;52.81
21879;BME280;27908;42.708;23.278;2023-04-07T12:23:45;63518.03;;;8.96;52.77
21879;BME280;27908;42.708;23.278;2023-04-07T12:26:11;63471.81;;;8.98;52.39
21879;BME280;27908;42.708;23.278;2023-04-07T12:28:37;63536.16;;;9.23;51.78
21879;BME280;27908;42.708;23.278;2023-04-07T12:33:47;63525.94;;;9.21;52.30
21879;BME280;27908;42.708;23.278;2023-04-07T12:36:12;63530.22;;;9.37;50.75
21879;BME280;27908;42.708;23.278;2023-04-07T12:38:38;63613.81;;;9.54;50.96
21879;BME280;27908;42.708;23.278;2023-04-07T12:41:03;63564.34;;;9.43;51.53
21879;BME280;27908;42.708;23.278;2023-04-07T12:43:31;63592.19;;;9.74;52.65
21879;BME280;27908;42.708;23.278;2023-04-07T12:45:57;63601.88;;;9.76;51.45
21879;BME280;27908;42.708;23.278;2023-04-07T12:48:22;63590.13;;;9.75;51.92
21879;BME280;27908;42.708;23.278;2023-04-07T12:50:48;63618.13;;;9.75;51.18
21879;BME280;27908;42.708;23.278;2023-04-07T12:53:14;63556.22;;;9.45;51.42
21879;BME280;27908;42.708;23.278;2023-04-07T12:55:39;63517.66;;;9.08;52.41
21879;BME280;27908;42.708;23.278;2023-04-07T12:58:06;63551.81;;;9.14;53.00
21879;BME280;27908;42.708;23.278;2023-04-07T13:00:33;63514.25;;;9.19;53.09
21879;BME280;27908;42.708;23.278;2023-04-07T13:02:58;63507.56;;;9.13;53.59
21879;BME280;27908;42.708;23.278;2023-04-07T13:05:24;63543.69;;;9.16;52.84
21879;BME280;27908;42.708;23.278;2023-04-07T13:07:50;63508.63;;;9.16;51.94
21879;BME280;27908;42.708;23.278;2023-04-07T13:10:15;63538.41;;;9.45;52.00
21879;BME280;27908;42.708;23.278;2023-04-07T13:12:41;63537.16;;;9.22;53.70
21879;BME280;27908;42.708;23.278;2023-04-07T13:15:06;63525.38;;;9.13;53.31
21879;BME280;27908;42.708;23.278;2023-04-07T13:17:32;63490.78;;;9.14;53.78
21879;BME280;27908;42.708;23.278;2023-04-07T13:20:00;63499.22;;;8.95;52.52
21879;BME280;27908;42.708;23.278;2023-04-07T13:22:26;63474.28;;;8.90;53.00